Time;durP1;ratioP1;P1;durP2;ratioP2;P2;SDS_P1;SDS_P2;PMS_P1;PMS_P2;Temp;Humidity;BMP_temperature;BMP_pressure;BME280_temperature;BME280_humidity;BME280_pressure;Samples;Min_cycle;Max_cycle;Signal;HPM_P1;HPM_P2
2022/12/28 00:01:31;;;;;;;5.32;2.40;;;;;;;;;;10528143;28;20408;-77
2022/12/28 00:06:52;;;;;;;2.17;0.90;;;;;;;;;;10548624;28;20222;-78
2022/12/28 00:12:04;;;;;;;4.80;2.13;;;;;;;;;;10544721;28;20678;-77
2022/12/28 00:17:21;;;;;;;37.67;9.90;;;;;;;;;;10510268;28;21639;-78
2022/12/28 00:22:30;;;;;;;4.65;2.30;;;;;;;;;;10537278;28;20036;-78
2022/12/28 00:27:35;;;;;;;5.77;2.20;;;;;;;;;;10530903;28;20523;-78
2022/12/28 00:33:07;;;;;;;5.90;2.03;;;;;;;;;;10472711;27;20090;-79
2022/12/28 00:38:09;;;;;;;2.70;1.50;;;;;;;;;;10471277;28;20406;-78
2022/12/28 00:43:12;;;;;;;6.17;2.57;;;;;;;;;;10468793;28;20497;-77
2022/12/28 00:48:22;;;;;;;13.70;4.60;;;;;;;;;;10461747;28;20076;-77
2022/12/28 00:53:25;;;;;;;12.40;3.60;;;;;;;;;;10462732;28;20052;-78
2022/12/28 00:58:28;;;;;;;4.47;1.30;;;;;;;;;;10458080;28;20044;-78
2022/12/28 01:03:31;;;;;;;6.10;1.97;;;;;;;;;;10466087;28;20068;-78
2022/12/28 01:08:39;;;;;;;8.07;3.27;;;;;;;;;;10467732;28;20066;-77
2022/12/28 01:13:42;;;;;;;5.13;2.20;;;;;;;;;;10467845;28;20044;-77
2022/12/28 01:18:46;;;;;;;40.03;8.83;;;;;;;;;;10463534;28;20037;-77
2022/12/28 01:23:49;;;;;;;6.50;2.20;;;;;;;;;;10461562;28;20036;-78
2022/12/28 01:28:52;;;;;;;0.27;0.23;;;;;;;;;;10468550;28;20045;-77
2022/12/28 01:33:56;;;;;;;1.90;0.83;;;;;;;;;;10464129;28;20030;-79
2022/12/28 01:38:59;;;;;;;1.33;0.98;;;;;;;;;;10466911;28;20029;-79
2022/12/28 01:44:21;;;;;;;3.80;0.67;;;;;;;;;;10436803;28;20045;-77
2022/12/28 01:49:29;;;;;;;6.00;2.70;;;;;;;;;;10440947;28;20296;-79
2022/12/28 01:54:34;;;;;;;8.50;2.57;;;;;;;;;;10429235;28;20128;-77
2022/12/28 01:59:38;;;;;;;2.77;1.60;;;;;;;;;;10438702;28;20063;-78
2022/12/28 02:04:42;;;;;;;2.15;0.90;;;;;;;;;;10442016;28;20414;-77
2022/12/28 02:09:45;;;;;;;;;;;;;;;;;;10442741;28;20047;-78
2022/12/28 02:15:08;;;;;;;1.50;1.20;;;;;;;;;;10440122;28;19921;-78
2022/12/28 02:20:13;;;;;;;0.73;0.33;;;;;;;;;;10435630;28;20059;-78
2022/12/28 02:25:30;;;;;;;2.43;0.97;;;;;;;;;;10434012;28;20049;-78
2022/12/28 02:30:39;;;;;;;1.60;1.03;;;;;;;;;;10425156;28;20098;-77
2022/12/28 02:35:45;;;;;;;2.03;1.17;;;;;;;;;;10430817;28;20098;-77
2022/12/28 02:40:50;;;;;;;2.60;1.47;;;;;;;;;;10438650;28;20052;-80
2022/12/28 02:51:23;;;;;;;1.70;0.70;;;;;;;;;;10432696;28;20033;-77
2022/12/28 02:56:31;;;;;;;1.70;0.97;;;;;;;;;;10434440;28;20048;-77
2022/12/28 03:01:50;;;;;;;1.30;1.00;;;;;;;;;;10442633;28;20136;-78
2022/12/28 03:12:25;;;;;;;2.27;1.00;;;;;;;;;;10436566;28;20052;-78
2022/12/28 03:33:37;;;;;;;1.23;0.80;;;;;;;;;;10434390;28;20753;-77
2022/12/28 03:38:44;;;;;;;1.17;0.40;;;;;;;;;;10434949;28;20048;-78
2022/12/28 03:43:49;;;;;;;1.60;1.10;;;;;;;;;;10429436;28;20124;-77
2022/12/28 03:48:53;;;;;;;2.42;0.65;;;;;;;;;;10431754;28;20075;-77
2022/12/28 03:53:56;;;;;;;3.08;0.88;;;;;;;;;;10450298;28;20597;-77
2022/12/28 03:58:59;;;;;;;1.70;0.90;;;;;;;;;;10436898;28;20046;-78
2022/12/28 04:04:03;;;;;;;1.88;1.17;;;;;;;;;;10428595;28;20145;-77
2022/12/28 04:09:06;;;;;;;0.52;0.52;;;;;;;;;;10434814;28;20063;-78
2022/12/28 04:14:08;;;;;;;1.53;0.90;;;;;;;;;;10440880;28;20136;-77
2022/12/28 04:19:14;;;;;;;1.35;1.08;;;;;;;;;;10445197;28;20418;-77
2022/12/28 04:24:16;;;;;;;0.82;0.60;;;;;;;;;;10438901;28;20110;-77
2022/12/28 04:29:19;;;;;;;1.53;0.90;;;;;;;;;;10439113;28;20068;-78
2022/12/28 04:34:23;;;;;;;0.63;0.30;;;;;;;;;;10434070;28;20080;-77
2022/12/28 04:39:25;;;;;;;1.48;1.10;;;;;;;;;;10435458;28;20044;-79
2022/12/28 04:44:32;;;;;;;2.63;1.23;;;;;;;;;;10436722;28;20475;-78
2022/12/28 04:49:36;;;;;;;1.17;0.70;;;;;;;;;;10432264;28;20091;-76
2022/12/28 04:54:39;;;;;;;1.88;0.68;;;;;;;;;;10433564;28;20045;-77
2022/12/28 04:59:41;;;;;;;0.65;0.55;;;;;;;;;;10430928;28;20077;-78
2022/12/28 05:04:45;;;;;;;2.37;0.53;;;;;;;;;;10434170;28;20098;-77
2022/12/28 05:09:48;;;;;;;;;;;;;;;;;;10430951;28;20061;-77
2022/12/28 05:14:51;;;;;;;1.40;0.83;;;;;;;;;;10429168;28;19974;-76
2022/12/28 05:19:55;;;;;;;1.33;0.80;;;;;;;;;;10440369;28;20086;-77
2022/12/28 05:24:58;;;;;;;0.73;0.73;;;;;;;;;;10444571;28;20048;-78
2022/12/28 05:30:00;;;;;;;2.88;1.35;;;;;;;;;;10432467;28;20055;-79
2022/12/28 05:35:05;;;;;;;3.43;1.30;;;;;;;;;;10435129;28;20049;-79
2022/12/28 05:40:08;;;;;;;1.10;0.80;;;;;;;;;;10436162;28;20044;-78
2022/12/28 05:45:11;;;;;;;3.40;1.13;;;;;;;;;;10446882;28;20038;-78
2022/12/28 05:50:16;;;;;;;2.88;1.08;;;;;;;;;;10436511;28;20049;-77
2022/12/28 05:55:18;;;;;;;1.13;0.65;;;;;;;;;;10437321;28;20060;-79
2022/12/28 06:00:21;;;;;;;0.93;0.40;;;;;;;;;;10442062;28;20057;-78
2022/12/28 06:05:26;;;;;;;0.57;0.43;;;;;;;;;;10445326;28;20052;-78
2022/12/28 06:10:28;;;;;;;1.45;0.88;;;;;;;;;;10434813;28;20490;-78
2022/12/28 06:15:31;;;;;;;2.38;0.90;;;;;;;;;;10436592;28;20047;-78
2022/12/28 06:20:37;;;;;;;1.50;0.95;;;;;;;;;;10427064;28;20029;-79
2022/12/28 06:25:40;;;;;;;1.67;0.70;;;;;;;;;;10431120;28;20155;-78
2022/12/28 06:30:43;;;;;;;4.97;0.93;;;;;;;;;;10424560;28;20049;-78
2022/12/28 06:35:55;;;;;;;2.83;1.10;;;;;;;;;;10434266;28;20131;-78
2022/12/28 06:41:01;;;;;;;0.73;0.50;;;;;;;;;;10435119;28;20049;-77
2022/12/28 06:46:16;;;;;;;2.17;1.08;;;;;;;;;;10433603;28;20490;-77
2022/12/28 06:51:21;;;;;;;4.07;1.10;;;;;;;;;;10432758;28;20037;-77
2022/12/28 06:56:24;;;;;;;2.20;0.98;;;;;;;;;;10438629;28;20072;-77
2022/12/28 07:01:28;;;;;;;1.95;0.80;;;;;;;;;;10429083;28;20049;-77
2022/12/28 07:06:34;;;;;;;1.20;0.73;;;;;;;;;;10431803;28;20073;-77
2022/12/28 07:11:37;;;;;;;2.53;1.25;;;;;;;;;;10427570;28;20037;-77
2022/12/28 07:16:40;;;;;;;2.47;0.57;;;;;;;;;;10434098;28;20061;-78
2022/12/28 07:21:43;;;;;;;1.58;1.10;;;;;;;;;;10436710;28;20487;-78
2022/12/28 07:26:45;;;;;;;2.30;0.90;;;;;;;;;;10442569;28;20487;-77
2022/12/28 07:31:48;;;;;;;0.82;0.80;;;;;;;;;;10432695;28;20429;-77
2022/12/28 07:36:52;;;;;;;;;;;;;;;;;;10444498;28;20452;-77
2022/12/28 07:42:05;;;;;;;1.75;1.10;;;;;;;;;;10438361;28;19924;-79
2022/12/28 07:47:08;;;;;;;2.25;0.70;;;;;;;;;;10426941;28;20125;-79
2022/12/28 07:52:10;;;;;;;2.88;1.40;;;;;;;;;;10429697;28;20037;-78
2022/12/28 07:57:15;;;;;;;3.55;1.63;;;;;;;;;;10428395;28;20052;-79
2022/12/28 08:02:18;;;;;;;15.30;3.90;;;;;;;;;;10436969;28;20132;-81
2022/12/28 08:07:20;;;;;;;0.93;0.82;;;;;;;;;;10446636;28;20048;-79
2022/12/28 08:12:27;;;;;;;5.70;1.83;;;;;;;;;;10435407;28;20049;-78
2022/12/28 08:17:29;;;;;;;;;;;;;;;;;;10430480;28;20041;-78
2022/12/28 08:22:32;;;;;;;3.03;0.90;;;;;;;;;;10428466;28;19929;-77
2022/12/28 08:27:36;;;;;;;1.85;0.85;;;;;;;;;;10433169;28;20041;-77
2022/12/28 08:32:40;;;;;;;2.85;0.93;;;;;;;;;;10428540;28;20037;-79
2022/12/28 08:37:42;;;;;;;1.40;0.93;;;;;;;;;;10423222;28;20038;-78
2022/12/28 08:42:46;;;;;;;2.05;1.08;;;;;;;;;;10428611;28;20098;-82
2022/12/28 08:47:49;;;;;;;;;;;;;;;;;;10419939;28;20049;-76
2022/12/28 08:52:52;;;;;;;4.22;1.42;;;;;;;;;;10436561;28;19964;-76
2022/12/28 08:57:56;;;;;;;1.45;0.90;;;;;;;;;;10428455;28;20094;-77
2022/12/28 09:02:59;;;;;;;3.42;1.17;;;;;;;;;;10443585;28;20037;-78
2022/12/28 09:08:02;;;;;;;2.37;1.10;;;;;;;;;;10440085;28;20633;-77
2022/12/28 09:13:06;;;;;;;0.45;0.45;;;;;;;;;;10432639;28;20037;-78
2022/12/28 09:18:09;;;;;;;7.22;2.67;;;;;;;;;;10439898;28;20549;-77
2022/12/28 09:23:11;;;;;;;2.30;0.88;;;;;;;;;;10439779;28;20067;-77
2022/12/28 09:28:15;;;;;;;6.25;1.83;;;;;;;;;;10435131;28;20041;-77
2022/12/28 09:39:02;;;;;;;2.30;1.33;;;;;;;;;;10436482;28;20041;-79
2022/12/28 09:44:17;;;;;;;2.78;1.00;;;;;;;;;;10439166;28;20254;-79
2022/12/28 09:49:24;;;;;;;12.70;3.00;;;;;;;;;;10438974;28;20052;-79
2022/12/28 09:54:27;;;;;;;6.10;2.20;;;;;;;;;;10432279;28;20057;-80
2022/12/28 09:59:34;;;;;;;2.33;1.40;;;;;;;;;;10445562;28;20437;-78
2022/12/28 10:04:36;;;;;;;3.78;1.45;;;;;;;;;;10434233;28;20406;-80
2022/12/28 10:09:39;;;;;;;4.28;2.22;;;;;;;;;;10440884;28;20040;-79
2022/12/28 10:14:45;;;;;;;2.78;1.75;;;;;;;;;;10432662;28;20049;-80
2022/12/28 10:19:48;;;;;;;7.43;2.13;;;;;;;;;;10445534;28;20192;-79
2022/12/28 10:24:51;;;;;;;12.15;3.67;;;;;;;;;;10453858;28;20045;-79
2022/12/28 10:29:55;;;;;;;9.00;2.63;;;;;;;;;;10439060;28;20096;-79
2022/12/28 10:34:59;;;;;;;3.78;1.05;;;;;;;;;;10437789;28;20509;-79
2022/12/28 10:40:05;;;;;;;3.15;1.33;;;;;;;;;;10438276;28;20037;-79
2022/12/28 10:45:19;;;;;;;4.03;0.82;;;;;;;;;;10444387;28;20033;-79
2022/12/28 10:50:39;;;;;;;1.40;1.00;;;;;;;;;;10435064;28;20407;-79
2022/12/28 10:55:42;;;;;;;2.65;0.82;;;;;;;;;;10436535;28;20589;-79
2022/12/28 11:00:52;;;;;;;1.38;0.82;;;;;;;;;;10438356;28;20041;-79
2022/12/28 11:06:12;;;;;;;2.78;1.35;;;;;;;;;;10438288;28;20135;-79
2022/12/28 11:11:19;;;;;;;1.88;1.50;;;;;;;;;;10437684;28;20033;-80
2022/12/28 11:16:23;;;;;;;1.75;1.42;;;;;;;;;;10442312;28;20407;-80
2022/12/28 11:21:25;;;;;;;2.35;1.65;;;;;;;;;;10439563;28;20136;-80
2022/12/28 11:26:30;;;;;;;2.20;1.53;;;;;;;;;;10436911;28;20049;-79
2022/12/28 11:31:36;;;;;;;2.80;1.67;;;;;;;;;;10436981;28;20049;-80
2022/12/28 11:36:40;;;;;;;2.75;1.60;;;;;;;;;;10427674;28;20300;-78
2022/12/28 11:41:43;;;;;;;2.20;1.20;;;;;;;;;;10439786;28;20032;-80
2022/12/28 11:47:06;;;;;;;;;;;;;;;;;;10438216;28;20051;-79
2022/12/28 11:52:32;;;;;;;1.50;1.02;;;;;;;;;;10434772;28;19967;-79
2022/12/28 11:57:37;;;;;;;3.63;1.17;;;;;;;;;;10431588;28;20063;-78
2022/12/28 12:02:40;;;;;;;1.70;0.90;;;;;;;;;;10433973;28;20056;-78
2022/12/28 12:07:47;;;;;;;2.08;1.20;;;;;;;;;;10432428;28;20029;-78
2022/12/28 12:12:55;;;;;;;3.42;1.30;;;;;;;;;;10431189;28;20103;-78
2022/12/28 12:18:01;;;;;;;1.20;0.98;;;;;;;;;;10440524;28;20656;-78
2022/12/28 12:23:05;;;;;;;1.92;1.50;;;;;;;;;;10428738;28;20041;-79
2022/12/28 12:28:16;;;;;;;1.50;1.40;;;;;;;;;;10430090;28;20555;-80
2022/12/28 12:33:24;;;;;;;1.30;1.20;;;;;;;;;;10433677;28;20418;-79
2022/12/28 12:38:32;;;;;;;1.50;1.40;;;;;;;;;;10437401;28;20125;-79
2022/12/28 12:43:42;;;;;;;1.13;1.13;;;;;;;;;;10433154;28;20042;-79
2022/12/28 12:49:06;;;;;;;2.00;1.40;;;;;;;;;;10433776;28;20067;-79
2022/12/28 12:54:18;;;;;;;1.08;0.90;;;;;;;;;;10432908;28;20053;-80
2022/12/28 12:59:35;;;;;;;1.17;0.82;;;;;;;;;;10439348;28;20051;-80
2022/12/28 13:04:41;;;;;;;1.80;1.00;;;;;;;;;;10430595;28;20045;-78
2022/12/28 13:09:44;;;;;;;0.98;0.93;;;;;;;;;;10436965;28;20083;-78
2022/12/28 13:14:48;;;;;;;0.70;0.70;;;;;;;;;;10427699;28;20033;-79
2022/12/28 13:19:51;;;;;;;;;;;;;;;;;;10431294;28;20414;-79
2022/12/28 13:24:54;;;;;;;1.38;0.80;;;;;;;;;;10425677;28;19932;-79
2022/12/28 13:29:57;;;;;;;2.70;0.52;;;;;;;;;;10430584;28;20041;-79
2022/12/28 13:35:00;;;;;;;1.30;0.50;;;;;;;;;;10438119;28;20049;-79
2022/12/28 13:40:10;;;;;;;0.32;0.32;;;;;;;;;;10441844;28;20053;-77
2022/12/28 13:45:15;;;;;;;0.50;0.50;;;;;;;;;;10442303;28;20060;-79
2022/12/28 13:50:20;;;;;;;2.35;0.80;;;;;;;;;;10432645;28;20121;-78
2022/12/28 13:55:26;;;;;;;1.33;0.50;;;;;;;;;;10437660;28;20471;-79
2022/12/28 14:00:31;;;;;;;1.35;0.70;;;;;;;;;;10437405;28;20045;-77
2022/12/28 14:05:33;;;;;;;1.38;0.40;;;;;;;;;;10437515;28;20472;-76
2022/12/28 14:10:37;;;;;;;1.55;0.32;;;;;;;;;;10434940;28;20284;-77
2022/12/28 14:15:40;;;;;;;1.02;0.85;;;;;;;;;;10431224;28;20623;-76
2022/12/28 14:20:47;;;;;;;0.37;0.37;;;;;;;;;;10436501;28;20076;-77
2022/12/28 14:25:52;;;;;;;2.78;0.80;;;;;;;;;;10441524;28;20036;-76
2022/12/28 14:30:55;;;;;;;4.47;1.40;;;;;;;;;;10439062;28;20126;-78
2022/12/28 14:35:59;;;;;;;0.35;0.35;;;;;;;;;;10443155;28;20146;-75
2022/12/28 14:41:04;;;;;;;1.38;0.80;;;;;;;;;;10438902;28;20045;-76
2022/12/28 14:46:18;;;;;;;1.92;0.68;;;;;;;;;;10434258;28;20041;-76
2022/12/28 14:51:26;;;;;;;0.70;0.70;;;;;;;;;;10426150;28;20053;-75
2022/12/28 14:56:33;;;;;;;1.67;0.75;;;;;;;;;;10456325;28;20147;-76
2022/12/28 15:01:42;;;;;;;1.60;0.80;;;;;;;;;;10438971;28;20522;-76
2022/12/28 15:06:45;;;;;;;2.33;1.10;;;;;;;;;;10438954;28;20435;-75
2022/12/28 15:11:49;;;;;;;2.80;1.30;;;;;;;;;;10432947;28;20037;-76
2022/12/28 15:16:58;;;;;;;0.35;0.22;;;;;;;;;;10435063;28;20041;-78
2022/12/28 15:22:01;;;;;;;0.98;0.60;;;;;;;;;;10431030;28;20102;-77
2022/12/28 15:27:05;;;;;;;0.95;0.30;;;;;;;;;;10431348;28;20131;-77
2022/12/28 15:32:08;;;;;;;2.78;1.30;;;;;;;;;;10422213;28;20045;-77
2022/12/28 15:37:11;;;;;;;1.65;0.88;;;;;;;;;;10435149;28;20044;-76
2022/12/28 15:42:15;;;;;;;3.17;1.50;;;;;;;;;;10433195;28;20037;-76
2022/12/28 15:47:18;;;;;;;2.55;1.08;;;;;;;;;;10440480;28;20048;-77
2022/12/28 15:52:21;;;;;;;4.32;1.80;;;;;;;;;;10433702;28;20406;-75
2022/12/28 15:57:25;;;;;;;5.07;1.48;;;;;;;;;;10438804;28;20128;-76
2022/12/28 16:02:28;;;;;;;1.67;1.10;;;;;;;;;;10434828;28;20064;-75
2022/12/28 16:07:31;;;;;;;0.60;0.60;;;;;;;;;;10437178;28;20029;-75
2022/12/28 16:12:35;;;;;;;1.02;0.60;;;;;;;;;;10426284;28;20471;-74
2022/12/28 16:17:37;;;;;;;;;;;;;;;;;;10420658;28;20037;-76
2022/12/28 16:22:52;;;;;;;0.70;0.45;;;;;;;;;;10426714;28;19947;-76
2022/12/28 16:27:56;;;;;;;3.22;1.40;;;;;;;;;;10435843;28;20044;-76
2022/12/28 16:32:59;;;;;;;1.75;1.20;;;;;;;;;;10433473;28;20037;-77
2022/12/28 16:38:01;;;;;;;3.63;0.93;;;;;;;;;;10440343;28;20052;-75
2022/12/28 16:43:06;;;;;;;4.50;1.63;;;;;;;;;;10433990;28;20056;-78
2022/12/28 16:48:10;;;;;;;1.27;0.95;;;;;;;;;;10439478;28;20052;-77
2022/12/28 16:53:12;;;;;;;1.50;0.70;;;;;;;;;;10438005;28;20048;-79
2022/12/28 16:58:16;;;;;;;7.50;1.70;;;;;;;;;;10437712;28;20041;-76
2022/12/28 17:03:19;;;;;;;0.63;0.50;;;;;;;;;;10438731;28;20037;-75
2022/12/28 17:08:22;;;;;;;3.67;1.48;;;;;;;;;;10431484;28;20067;-74
2022/12/28 17:13:26;;;;;;;6.57;2.92;;;;;;;;;;10435841;28;20044;-75
2022/12/28 17:18:32;;;;;;;1.50;0.95;;;;;;;;;;10441259;28;20068;-75
2022/12/28 17:23:35;;;;;;;3.50;1.40;;;;;;;;;;10437986;28;20033;-76
2022/12/28 17:28:39;;;;;;;4.05;1.60;;;;;;;;;;10445446;28;20057;-75
2022/12/28 17:33:44;;;;;;;3.30;1.58;;;;;;;;;;10435519;28;20517;-77
2022/12/28 17:38:47;;;;;;;4.82;1.98;;;;;;;;;;10435060;28;20098;-76
2022/12/28 17:43:52;;;;;;;5.07;1.90;;;;;;;;;;10437720;28;20399;-76
2022/12/28 17:48:55;;;;;;;6.88;2.30;;;;;;;;;;10443315;28;20080;-75
2022/12/28 17:53:58;;;;;;;3.70;2.00;;;;;;;;;;10441551;28;20040;-76
2022/12/28 17:59:02;;;;;;;5.88;1.63;;;;;;;;;;10431566;28;20053;-77
2022/12/28 18:04:05;;;;;;;4.68;2.13;;;;;;;;;;10435163;28;20595;-75
2022/12/28 18:09:08;;;;;;;7.90;2.60;;;;;;;;;;10434049;28;20048;-75
2022/12/28 18:14:17;;;;;;;4.50;1.70;;;;;;;;;;10427253;28;20036;-76
2022/12/28 18:19:20;;;;;;;4.28;1.80;;;;;;;;;;10432746;28;20064;-76
2022/12/28 18:24:23;;;;;;;6.57;2.30;;;;;;;;;;10427502;28;20095;-77
2022/12/28 18:29:27;;;;;;;3.73;1.87;;;;;;;;;;10439520;28;20052;-75
2022/12/28 18:34:30;;;;;;;6.40;2.13;;;;;;;;;;10436153;28;20055;-75
2022/12/28 18:39:33;;;;;;;3.40;1.50;;;;;;;;;;10440362;28;20045;-75
2022/12/28 18:44:37;;;;;;;2.05;1.10;;;;;;;;;;10438275;28;20049;-75
2022/12/28 18:49:39;;;;;;;4.80;1.50;;;;;;;;;;10432176;28;20064;-75
2022/12/28 18:54:48;;;;;;;3.03;1.30;;;;;;;;;;10439372;28;20033;-75
2022/12/28 18:59:55;;;;;;;2.65;1.63;;;;;;;;;;10437407;28;20037;-75
2022/12/28 19:04:57;;;;;;;;;;;;;;;;;;10430388;28;20037;-76
2022/12/28 19:10:12;;;;;;;4.13;1.52;;;;;;;;;;10433845;28;19932;-76
2022/12/28 19:15:17;;;;;;;2.45;1.50;;;;;;;;;;10428541;28;20362;-74
2022/12/28 19:20:21;;;;;;;4.20;1.75;;;;;;;;;;10422049;28;20536;-76
2022/12/28 19:25:23;;;;;;;2.53;1.45;;;;;;;;;;10442800;28;20475;-76
2022/12/28 19:30:27;;;;;;;2.38;0.93;;;;;;;;;;10425102;28;20052;-75
2022/12/28 19:35:30;;;;;;;5.20;2.13;;;;;;;;;;10430224;28;20048;-75
2022/12/28 19:40:33;;;;;;;5.10;1.67;;;;;;;;;;10433997;28;20102;-76
2022/12/28 19:45:36;;;;;;;7.20;2.20;;;;;;;;;;10421584;28;20111;-76
2022/12/28 19:50:39;;;;;;;5.20;2.10;;;;;;;;;;10434619;28;20049;-76
2022/12/28 19:55:42;;;;;;;5.25;1.95;;;;;;;;;;10434650;28;20044;-76
2022/12/28 20:00:46;;;;;;;4.10;2.10;;;;;;;;;;10426959;28;20568;-77
2022/12/28 20:05:49;;;;;;;3.97;2.03;;;;;;;;;;10424460;28;20447;-76
2022/12/28 20:10:54;;;;;;;1.50;0.65;;;;;;;;;;10432442;28;20132;-76
2022/12/28 20:15:58;;;;;;;3.60;2.15;;;;;;;;;;10436003;28;20037;-76
2022/12/28 20:21:02;;;;;;;5.40;1.45;;;;;;;;;;10425850;28;20072;-77
2022/12/28 20:31:42;;;;;;;7.43;2.30;;;;;;;;;;10431656;28;20053;-76
2022/12/28 20:36:44;;;;;;;;;;;;;;;;;;10431217;28;20507;-76
2022/12/28 20:47:09;;;;;;;2.90;1.27;;;;;;;;;;10421036;28;20376;-76
2022/12/28 20:52:11;;;;;;;;;;;;;;;;;;10433227;28;20045;-77
2022/12/28 20:57:14;;;;;;;4.38;2.17;;;;;;;;;;10421424;28;19928;-75
2022/12/28 21:02:18;;;;;;;7.00;1.77;;;;;;;;;;10428475;28;20068;-76
2022/12/28 21:07:20;;;;;;;3.90;1.60;;;;;;;;;;10438751;28;20558;-75
2022/12/28 21:12:23;;;;;;;0.85;0.77;;;;;;;;;;10437068;28;20045;-77
2022/12/28 21:17:28;;;;;;;1.60;1.10;;;;;;;;;;10417961;28;20041;-77
2022/12/28 21:22:32;;;;;;;2.72;1.48;;;;;;;;;;10429978;28;20045;-76
2022/12/28 21:27:35;;;;;;;3.22;1.42;;;;;;;;;;10433797;28;20494;-78
2022/12/28 21:32:39;;;;;;;4.13;1.63;;;;;;;;;;10422585;28;20096;-77
2022/12/28 21:37:42;;;;;;;4.40;1.60;;;;;;;;;;10432296;28;20036;-78
2022/12/28 21:42:44;;;;;;;4.07;1.88;;;;;;;;;;10434215;28;20179;-78
2022/12/28 21:47:48;;;;;;;4.55;1.77;;;;;;;;;;10435237;28;20049;-76
2022/12/28 21:52:51;;;;;;;2.85;1.42;;;;;;;;;;10441615;28;20083;-76
2022/12/28 21:57:59;;;;;;;4.18;1.50;;;;;;;;;;10436799;28;20148;-78
2022/12/28 22:13:45;;;;;;;3.22;1.60;;;;;;;;;;10430365;28;20037;-76
2022/12/28 22:18:49;;;;;;;2.40;1.17;;;;;;;;;;10434006;28;20041;-77
2022/12/28 22:24:05;;;;;;;4.07;2.17;;;;;;;;;;10429069;28;20067;-77
2022/12/28 22:29:08;;;;;;;5.28;2.38;;;;;;;;;;10431352;28;20037;-75
2022/12/28 22:34:12;;;;;;;3.88;1.73;;;;;;;;;;10440169;28;20614;-76
2022/12/28 22:39:14;;;;;;;0.95;0.70;;;;;;;;;;10429208;28;20037;-76
2022/12/28 22:44:17;;;;;;;3.53;1.27;;;;;;;;;;10428789;28;20133;-75
2022/12/28 22:49:21;;;;;;;5.65;1.75;;;;;;;;;;10435596;28;20086;-77
2022/12/28 22:54:24;;;;;;;3.83;1.80;;;;;;;;;;10425012;28;20045;-74
2022/12/28 22:59:26;;;;;;;3.25;1.17;;;;;;;;;;10426858;28;20049;-75
2022/12/28 23:04:31;;;;;;;3.88;0.93;;;;;;;;;;10423648;28;20068;-73
2022/12/28 23:09:33;;;;;;;3.20;1.70;;;;;;;;;;10424553;28;20045;-73
2022/12/28 23:31:01;;;;;;;2.97;1.10;;;;;;;;;;10426012;28;20143;-73
2022/12/28 23:36:05;;;;;;;1.75;1.15;;;;;;;;;;10419111;28;20435;-74
2022/12/28 23:46:28;;;;;;;0.68;0.68;;;;;;;;;;10424061;28;20392;-74
2022/12/28 23:51:32;;;;;;;0.47;0.32;;;;;;;;;;10424212;28;20071;-73
2022/12/28 23:56:35;;;;;;;0.85;0.60;;;;;;;;;;10436572;28;20045;-73
